Time;durP1;ratioP1;P1;durP2;ratioP2;P2;SDS_P1;SDS_P2;PMS_P1;PMS_P2;Temp;Humidity;BMP_temperature;BMP_pressure;BME280_temperature;BME280_humidity;BME280_pressure;Samples;Min_cycle;Max_cycle;Signal;HPM_P1;HPM_P2
2022/11/07 00:01:32;;;;;;;;;;;;;;;;;;6207210;22;19919;-84
2022/11/07 00:03:57;;;;;;;;;;;;;;;;;;6236388;22;20055;-84
2022/11/07 00:06:23;;;;;;;;;;;;;;;;;;6202696;23;19930;-84
2022/11/07 00:08:52;;;;;;;;;;;;;;;;;;6205292;23;20329;-84
2022/11/07 00:11:18;;;;;;;;;;;;;;;;;;6200601;23;19951;-85
2022/11/07 00:13:44;;;;;;;;;;;;;;;;;;6180479;23;19915;-84
2022/11/07 00:16:10;;;;;;;;;;;;;;;;;;6200581;23;20341;-83
2022/11/07 00:18:36;;;;;;;;;;;;;;;;;;6180031;23;20297;-84
2022/11/07 00:21:02;;;;;;;;;;;;;;;;;;6178002;23;19919;-84
2022/11/07 00:23:28;;;;;;;;;;;;;;;;;;6202311;23;19926;-83
2022/11/07 00:25:54;;;;;;;;;;;;;;;;;;6178057;23;19920;-83
2022/11/07 00:28:23;;;;;;;;;;;;;;;;;;6174885;23;19992;-83
2022/11/07 00:30:49;;;;;;;;;;;;;;;;;;6205055;23;19919;-83
2022/11/07 00:33:15;;;;;;;;;;;;;;;;;;6179710;23;19923;-84
2022/11/07 00:35:41;;;;;;;;;;;;;;;;;;6178398;23;19924;-83
2022/11/07 00:38:07;;;;;;;;;;;;;;;;;;6180294;23;19979;-83
2022/11/07 00:40:33;;;;;;;;;;;;;;;;;;6177701;23;19915;-84
2022/11/07 00:42:59;;;;;;;;;;;;;;;;;;6205161;23;19923;-83
2022/11/07 00:45:25;;;;;;;;;;;;;;;;;;6199399;23;19931;-84
2022/11/07 00:47:51;;;;;;;;;;;;;;;;;;6204496;23;20425;-84
2022/11/07 00:50:17;;;;;;;;;;;;;;;;;;6199699;23;19920;-84
2022/11/07 00:52:43;;;;;;;;;;;;;;;;;;6180404;23;19919;-84
2022/11/07 00:55:09;;;;;;;;;;;;;;;;;;6203626;23;19924;-84
2022/11/07 00:57:35;;;;;;;;;;;;;;;;;;6173051;23;19924;-84
2022/11/07 01:00:01;;;;;;;;;;;;;;;;;;6202471;23;19974;-84
2022/11/07 01:02:27;;;;;;;;;;;;;;;;;;6196950;23;19926;-84
2022/11/07 01:05:11;;;;;;;;;;;;;;;;;;6176273;23;20345;-85
2022/11/07 01:07:37;;;;;;;;;;;;;;;;;;6179695;23;19927;-85
2022/11/07 01:10:03;;;;;;;;;;;;;;;;;;6179800;23;19916;-85
2022/11/07 01:12:29;;;;;;;;;;;;;;;;;;6175868;23;19919;-85
2022/11/07 01:14:55;;;;;;;;;;;;;;;;;;6201584;23;19934;-84
2022/11/07 01:17:21;;;;;;;;;;;;;;;;;;6175610;23;19951;-84
2022/11/07 01:19:47;;;;;;;;;;;;;;;;;;6177709;23;19943;-84
2022/11/07 01:22:13;;;;;;;;;;;;;;;;;;6200516;23;19926;-85
2022/11/07 01:24:39;;;;;;;;;;;;;;;;;;6177602;23;19919;-84
2022/11/07 01:27:05;;;;;;;;;;;;;;;;;;6201909;23;20381;-85
2022/11/07 01:29:31;;;;;;;;;;;;;;;;;;6202478;23;20388;-84
2022/11/07 01:31:57;;;;;;;;;;;;;;;;;;6181398;23;20333;-84
2022/11/07 01:34:23;;;;;;;;;;;;;;;;;;6201740;23;19920;-84
2022/11/07 01:36:49;;;;;;;;;;;;;;;;;;6204448;23;19919;-84
2022/11/07 01:39:15;;;;;;;;;;;;;;;;;;6178240;23;19959;-85
2022/11/07 01:41:41;;;;;;;;;;;;;;;;;;6177982;23;20101;-84
2022/11/07 01:44:07;;;;;;;;;;;;;;;;;;6179884;23;20378;-84
2022/11/07 01:46:33;;;;;;;;;;;;;;;;;;6176948;23;20329;-84
2022/11/07 01:48:59;;;;;;;;;;;;;;;;;;6204558;23;20418;-85
2022/11/07 01:51:24;;;;;;;;;;;;;;;;;;6202562;23;19927;-84
2022/11/07 01:53:50;;;;;;;;;;;;;;;;;;6206026;22;20206;-84
2022/11/07 01:56:16;;;;;;;;;;;;;;;;;;6201846;23;19924;-84
2022/11/07 01:58:42;;;;;;;;;;;;;;;;;;6179971;23;19915;-84
2022/11/07 02:01:08;;;;;;;;;;;;;;;;;;6201084;23;19927;-84
2022/11/07 02:03:34;;;;;;;;;;;;;;;;;;6204794;23;20340;-84
2022/11/07 02:06:00;;;;;;;;;;;;;;;;;;6214938;22;19923;-85
2022/11/07 02:08:26;;;;;;;;;;;;;;;;;;6206441;22;20323;-85
2022/11/07 02:10:52;;;;;;;;;;;;;;;;;;6207275;22;19919;-84
2022/11/07 02:13:18;;;;;;;;;;;;;;;;;;6228232;22;19926;-84
2022/11/07 02:15:44;;;;;;;;;;;;;;;;;;6234666;22;19919;-85
2022/11/07 02:18:13;;;;;;;;;;;;;;;;;;6209689;22;19957;-85
2022/11/07 02:20:38;;;;;;;;;;;;;;;;;;6209095;22;20630;-85
2022/11/07 02:23:04;;;;;;;;;;;;;;;;;;6209431;22;20144;-85
2022/11/07 02:25:30;;;;;;;;;;;;;;;;;;6204308;22;20689;-84
2022/11/07 02:27:56;;;;;;;;;;;;;;;;;;6210460;22;20325;-85
2022/11/07 02:30:22;;;;;;;;;;;;;;;;;;6230834;22;20291;-85
2022/11/07 02:32:48;;;;;;;;;;;;;;;;;;6210666;22;20297;-85
2022/11/07 02:35:14;;;;;;;;;;;;;;;;;;6231615;22;20256;-84
2022/11/07 02:37:41;;;;;;;;;;;;;;;;;;6211118;22;19919;-84
2022/11/07 02:40:07;;;;;;;;;;;;;;;;;;6211972;22;19919;-85
2022/11/07 02:42:42;;;;;;;;;;;;;;;;;;6208043;22;19920;-84
2022/11/07 02:45:08;;;;;;;;;;;;;;;;;;6209296;22;19973;-84
2022/11/07 02:47:34;;;;;;;;;;;;;;;;;;6206485;22;20244;-84
2022/11/07 02:50:00;;;;;;;;;;;;;;;;;;6207726;22;19915;-85
2022/11/07 02:52:26;;;;;;;;;;;;;;;;;;6205306;22;20022;-85
2022/11/07 02:54:52;;;;;;;;;;;;;;;;;;6208934;22;20029;-84
2022/11/07 02:57:17;;;;;;;;;;;;;;;;;;6232605;22;19954;-84
2022/11/07 02:59:43;;;;;;;;;;;;;;;;;;6208691;22;19919;-85
2022/11/07 03:02:12;;;;;;;;;;;;;;;;;;6234877;22;19986;-84
2022/11/07 03:04:38;;;;;;;;;;;;;;;;;;6264136;22;19919;-85
2022/11/07 03:07:04;;;;;;;;;;;;;;;;;;6238862;22;20396;-85
2022/11/07 03:09:30;;;;;;;;;;;;;;;;;;6261053;22;20767;-85
2022/11/07 03:11:56;;;;;;;;;;;;;;;;;;6237027;22;20239;-84
2022/11/07 03:14:22;;;;;;;;;;;;;;;;;;6260283;22;19922;-84
2022/11/07 03:16:48;;;;;;;;;;;;;;;;;;6262173;22;19926;-85
2022/11/07 03:19:14;;;;;;;;;;;;;;;;;;6205312;22;19965;-84
2022/11/07 03:21:40;;;;;;;;;;;;;;;;;;6206880;22;20363;-84
2022/11/07 03:24:06;;;;;;;;;;;;;;;;;;6206937;22;20222;-84
2022/11/07 03:26:32;;;;;;;;;;;;;;;;;;6204002;22;19919;-84
2022/11/07 03:28:58;;;;;;;;;;;;;;;;;;6231448;22;19981;-84
2022/11/07 03:31:24;;;;;;;;;;;;;;;;;;6205564;22;20014;-84
2022/11/07 03:33:50;;;;;;;;;;;;;;;;;;6210243;22;19951;-84
2022/11/07 03:36:16;;;;;;;;;;;;;;;;;;6232303;22;19949;-84
2022/11/07 03:38:41;;;;;;;;;;;;;;;;;;6236358;22;20013;-84
2022/11/07 03:41:07;;;;;;;;;;;;;;;;;;6234795;22;19946;-84
2022/11/07 03:43:33;;;;;;;;;;;;;;;;;;6207071;22;20016;-84
2022/11/07 03:45:59;;;;;;;;;;;;;;;;;;6211351;22;19919;-85
2022/11/07 03:48:25;;;;;;;;;;;;;;;;;;6208103;22;20028;-84
2022/11/07 03:50:51;;;;;;;;;;;;;;;;;;6210321;22;20257;-84
2022/11/07 03:53:17;;;;;;;;;;;;;;;;;;6207967;22;19926;-85
2022/11/07 03:55:43;;;;;;;;;;;;;;;;;;6236184;22;19923;-84
2022/11/07 03:58:09;;;;;;;;;;;;;;;;;;6233264;22;19972;-84
2022/11/07 04:00:35;;;;;;;;;;;;;;;;;;6231794;22;19930;-84
2022/11/07 04:03:03;;;;;;;;;;;;;;;;;;6207920;22;20022;-84
2022/11/07 04:05:29;;;;;;;;;;;;;;;;;;6204171;22;20266;-85
2022/11/07 04:07:55;;;;;;;;;;;;;;;;;;6210816;22;19923;-84
2022/11/07 04:10:20;;;;;;;;;;;;;;;;;;6209620;22;19956;-85
2022/11/07 04:18:16;;;;;;;;;;;;;;;;;;6233315;22;19974;-85
2022/11/07 04:20:42;;;;;;;;;;;;;;;;;;6237406;22;20320;-84
2022/11/07 04:23:08;;;;;;;;;;;;;;;;;;6237501;22;20244;-84
2022/11/07 04:28:19;;;;;;;;;;;;;;;;;;6232383;22;20333;-85
2022/11/07 04:30:45;;;;;;;;;;;;;;;;;;6212866;22;19919;-85
2022/11/07 04:33:11;;;;;;;;;;;;;;;;;;6235814;22;19977;-85
2022/11/07 04:35:36;;;;;;;;;;;;;;;;;;6262863;22;19969;-85
2022/11/07 04:38:02;;;;;;;;;;;;;;;;;;6264304;22;19945;-84
2022/11/07 04:40:28;;;;;;;;;;;;;;;;;;6209856;22;19915;-85
2022/11/07 04:42:54;;;;;;;;;;;;;;;;;;6235482;22;19964;-84
2022/11/07 04:45:20;;;;;;;;;;;;;;;;;;6231899;22;19919;-85
2022/11/07 04:47:46;;;;;;;;;;;;;;;;;;6236030;22;19942;-84
2022/11/07 04:50:12;;;;;;;;;;;;;;;;;;6260143;22;19923;-84
2022/11/07 04:52:38;;;;;;;;;;;;;;;;;;6261053;22;19920;-84
2022/11/07 04:55:04;;;;;;;;;;;;;;;;;;6232963;22;19923;-84
2022/11/07 04:57:30;;;;;;;;;;;;;;;;;;6230237;22;19929;-85
2022/11/07 04:59:56;;;;;;;;;;;;;;;;;;6210405;22;19915;-85
2022/11/07 05:02:22;;;;;;;;;;;;;;;;;;6258841;22;19923;-84
2022/11/07 05:04:48;;;;;;;;;;;;;;;;;;6264511;22;19961;-85
2022/11/07 05:07:14;;;;;;;;;;;;;;;;;;6210370;23;19949;-84
2022/11/07 05:09:40;;;;;;;;;;;;;;;;;;6205533;23;19945;-84
2022/11/07 05:12:06;;;;;;;;;;;;;;;;;;6210569;23;19919;-85
2022/11/07 05:14:32;;;;;;;;;;;;;;;;;;6205254;23;19955;-84
2022/11/07 05:16:58;;;;;;;;;;;;;;;;;;6181374;23;19919;-84
2022/11/07 05:19:24;;;;;;;;;;;;;;;;;;6178345;23;19926;-84
2022/11/07 05:24:34;;;;;;;;;;;;;;;;;;6204805;23;19927;-84
2022/11/07 05:27:00;;;;;;;;;;;;;;;;;;6177337;23;20244;-85
2022/11/07 05:29:26;;;;;;;;;;;;;;;;;;6176062;23;19986;-85
2022/11/07 05:31:52;;;;;;;;;;;;;;;;;;6203976;23;19973;-84
2022/11/07 05:34:18;;;;;;;;;;;;;;;;;;6232370;23;19994;-84
2022/11/07 05:36:44;;;;;;;;;;;;;;;;;;6226837;23;19927;-85
2022/11/07 05:39:13;;;;;;;;;;;;;;;;;;6201559;23;20359;-85
2022/11/07 05:41:39;;;;;;;;;;;;;;;;;;6227711;23;19919;-84
2022/11/07 05:44:05;;;;;;;;;;;;;;;;;;6202159;23;19929;-85
2022/11/07 05:46:31;;;;;;;;;;;;;;;;;;6197177;23;20592;-85
2022/11/07 05:48:57;;;;;;;;;;;;;;;;;;6174989;23;19915;-85
2022/11/07 05:51:23;;;;;;;;;;;;;;;;;;6198977;23;19986;-85
2022/11/07 05:53:49;;;;;;;;;;;;;;;;;;6176480;22;20003;-86
2022/11/07 05:56:15;;;;;;;;;;;;;;;;;;6172855;23;19927;-85
2022/11/07 05:58:41;;;;;;;;;;;;;;;;;;6200827;23;19950;-85
2022/11/07 06:01:07;;;;;;;;;;;;;;;;;;6176362;23;20344;-84
2022/11/07 06:03:33;;;;;;;;;;;;;;;;;;6200447;23;19919;-85
2022/11/07 06:05:59;;;;;;;;;;;;;;;;;;6184846;22;20354;-84
2022/11/07 06:08:25;;;;;;;;;;;;;;;;;;6206380;22;19923;-84
2022/11/07 06:10:51;;;;;;;;;;;;;;;;;;6207884;22;20359;-84
2022/11/07 06:13:17;;;;;;;;;;;;;;;;;;6229644;22;19993;-84
2022/11/07 06:15:43;;;;;;;;;;;;;;;;;;6233267;22;19923;-85
2022/11/07 06:18:09;;;;;;;;;;;;;;;;;;6207675;22;20596;-85
2022/11/07 06:20:35;;;;;;;;;;;;;;;;;;6229531;22;19919;-85
2022/11/07 06:23:01;;;;;;;;;;;;;;;;;;6209303;22;20408;-85
2022/11/07 06:25:27;;;;;;;;;;;;;;;;;;6202681;22;20389;-85
2022/11/07 06:27:53;;;;;;;;;;;;;;;;;;6208981;22;19919;-85
2022/11/07 06:30:19;;;;;;;;;;;;;;;;;;6204819;22;19919;-85
2022/11/07 06:32:45;;;;;;;;;;;;;;;;;;6206718;22;19923;-84
2022/11/07 06:35:11;;;;;;;;;;;;;;;;;;6232388;22;20278;-85
2022/11/07 06:37:36;;;;;;;;;;;;;;;;;;6207994;22;19923;-84
2022/11/07 06:40:02;;;;;;;;;;;;;;;;;;6230028;22;19965;-85
2022/11/07 06:42:28;;;;;;;;;;;;;;;;;;6205530;22;20247;-85
2022/11/07 06:44:54;;;;;;;;;;;;;;;;;;6235274;22;20601;-85
2022/11/07 06:47:20;;;;;;;;;;;;;;;;;;6230911;22;20335;-84
2022/11/07 06:49:46;;;;;;;;;;;;;;;;;;6231661;22;19919;-84
2022/11/07 06:52:12;;;;;;;;;;;;;;;;;;6204866;22;19945;-84
2022/11/07 06:54:38;;;;;;;;;;;;;;;;;;6206175;22;19934;-84
2022/11/07 06:57:04;;;;;;;;;;;;;;;;;;6208960;22;20275;-83
2022/11/07 06:59:30;;;;;;;;;;;;;;;;;;6229893;22;20371;-84
2022/11/07 07:01:56;;;;;;;;;;;;;;;;;;6228867;22;20247;-84
2022/11/07 07:04:22;;;;;;;;;;;;;;;;;;6201995;22;20209;-84
2022/11/07 07:06:48;;;;;;;;;;;;;;;;;;6242540;22;19998;-84
2022/11/07 07:09:17;;;;;;;;;;;;;;;;;;6214031;22;20449;-83
2022/11/07 07:11:52;;;;;;;;;;;;;;;;;;6237437;22;19919;-83
2022/11/07 07:14:18;;;;;;;;;;;;;;;;;;6234672;22;19990;-83
2022/11/07 07:16:46;;;;;;;;;;;;;;;;;;6262117;22;20362;-83
2022/11/07 07:19:12;;;;;;;;;;;;;;;;;;6208627;22;20242;-83
2022/11/07 07:21:40;;;;;;;;;;;;;;;;;;6235671;22;19926;-83
2022/11/07 07:24:06;;;;;;;;;;;;;;;;;;6209695;22;19989;-84
2022/11/07 07:26:32;;;;;;;;;;;;;;;;;;6207393;22;20347;-83
2022/11/07 07:28:58;;;;;;;;;;;;;;;;;;6209236;22;19919;-83
2022/11/07 07:31:25;;;;;;;;;;;;;;;;;;6207014;22;19941;-83
2022/11/07 07:33:51;;;;;;;;;;;;;;;;;;6210356;22;20343;-84
2022/11/07 07:36:17;;;;;;;;;;;;;;;;;;6206349;22;20750;-83
2022/11/07 07:38:43;;;;;;;;;;;;;;;;;;6261825;22;20299;-83
2022/11/07 07:41:09;;;;;;;;;;;;;;;;;;6212869;22;20606;-83
2022/11/07 07:43:38;;;;;;;;;;;;;;;;;;6214191;22;19957;-84
2022/11/07 07:46:20;;;;;;;;;;;;;;;;;;6213512;22;19986;-83
2022/11/07 07:48:46;;;;;;;;;;;;;;;;;;6212013;22;20286;-83
2022/11/07 07:51:12;;;;;;;;;;;;;;;;;;6260564;22;19919;-84
2022/11/07 07:56:53;;;;;;;;;;;;;;;;;;6265574;22;19947;-86
2022/11/07 07:59:19;;;;;;;;;;;;;;;;;;6204495;22;19915;-86
2022/11/07 08:01:45;;;;;;;;;;;;;;;;;;6235815;22;20000;-86
2022/11/07 08:04:11;;;;;;;;;;;;;;;;;;6207659;22;19926;-86
2022/11/07 08:06:37;;;;;;;;;;;;;;;;;;6207796;22;20033;-86
2022/11/07 08:09:03;;;;;;;;;;;;;;;;;;6259306;22;19946;-86
2022/11/07 08:11:29;;;;;;;;;;;;;;;;;;6230198;22;20000;-86
2022/11/07 08:13:55;;;;;;;;;;;;;;;;;;6261002;22;19974;-86
2022/11/07 08:16:21;;;;;;;;;;;;;;;;;;6229279;22;19930;-86
2022/11/07 08:18:47;;;;;;;;;;;;;;;;;;6233273;22;20407;-86
2022/11/07 08:21:13;;;;;;;;;;;;;;;;;;6232197;22;19919;-85
2022/11/07 08:23:39;;;;;;;;;;;;;;;;;;6259665;22;20363;-86
2022/11/07 08:26:05;;;;;;;;;;;;;;;;;;6230482;22;19927;-86
2022/11/07 08:28:31;;;;;;;;;;;;;;;;;;6228212;22;20168;-86
2022/11/07 08:30:57;;;;;;;;;;;;;;;;;;6235854;22;20023;-86
2022/11/07 08:33:23;;;;;;;;;;;;;;;;;;6230735;22;19926;-86
2022/11/07 08:35:49;;;;;;;;;;;;;;;;;;6231557;22;19923;-86
2022/11/07 08:38:15;;;;;;;;;;;;;;;;;;6227238;22;19930;-86
2022/11/07 08:40:41;;;;;;;;;;;;;;;;;;6232324;22;19959;-86
2022/11/07 08:43:07;;;;;;;;;;;;;;;;;;6261209;22;20349;-91
2022/11/07 08:45:33;;;;;;;;;;;;;;;;;;6228879;22;19923;-86
2022/11/07 08:47:59;;;;;;;;;;;;;;;;;;6233233;22;19916;-86
2022/11/07 08:50:25;;;;;;;;;;;;;;;;;;6229398;22;19930;-86
2022/11/07 08:52:51;;;;;;;;;;;;;;;;;;6259669;22;19919;-85
2022/11/07 08:55:17;;;;;;;;;;;;;;;;;;6231681;22;19923;-85
2022/11/07 08:57:43;;;;;;;;;;;;;;;;;;6233724;22;19987;-86
2022/11/07 09:00:09;;;;;;;;;;;;;;;;;;6235346;22;19920;-86
2022/11/07 09:02:35;;;;;;;;;;;;;;;;;;6230997;22;19929;-86
2022/11/07 09:05:01;;;;;;;;;;;;;;;;;;6263649;22;19941;-86
2022/11/07 09:07:27;;;;;;;;;;;;;;;;;;6233715;22;19972;-86
2022/11/07 09:09:53;;;;;;;;;;;;;;;;;;6258702;22;20251;-86
2022/11/07 09:12:19;;;;;;;;;;;;;;;;;;6260031;22;19919;-86
2022/11/07 09:14:45;;;;;;;;;;;;;;;;;;6235294;22;20395;-86
2022/11/07 09:17:11;;;;;;;;;;;;;;;;;;6261525;22;19919;-87
2022/11/07 09:19:37;;;;;;;;;;;;;;;;;;6234584;22;19915;-86
2022/11/07 09:22:03;;;;;;;;;;;;;;;;;;6235957;22;19950;-87
2022/11/07 09:24:29;;;;;;;;;;;;;;;;;;6229652;22;19925;-86
2022/11/07 09:26:55;;;;;;;;;;;;;;;;;;6259106;22;20416;-86
2022/11/07 09:29:21;;;;;;;;;;;;;;;;;;6232873;22;19919;-86
2022/11/07 09:31:47;;;;;;;;;;;;;;;;;;6232242;22;19915;-87
2022/11/07 09:34:12;;;;;;;;;;;;;;;;;;6256321;22;19927;-86
2022/11/07 09:36:38;;;;;;;;;;;;;;;;;;6231187;22;19930;-86
2022/11/07 09:39:05;;;;;;;;;;;;;;;;;;6231510;22;20139;-86
2022/11/07 09:41:31;;;;;;;;;;;;;;;;;;6232588;22;20499;-86
2022/11/07 09:43:57;;;;;;;;;;;;;;;;;;6261459;22;19919;-86
2022/11/07 09:46:23;;;;;;;;;;;;;;;;;;6230376;22;19958;-86
2022/11/07 09:48:49;;;;;;;;;;;;;;;;;;6235987;22;19943;-86
2022/11/07 09:51:14;;;;;;;;;;;;;;;;;;6231879;22;19934;-85
2022/11/07 09:53:40;;;;;;;;;;;;;;;;;;6238212;22;19942;-86
2022/11/07 09:56:06;;;;;;;;;;;;;;;;;;6237284;22;20339;-85
2022/11/07 09:58:33;;;;;;;;;;;;;;;;;;6234313;22;19982;-86
2022/11/07 10:00:59;;;;;;;;;;;;;;;;;;6237359;22;19986;-86
2022/11/07 10:03:25;;;;;;;;;;;;;;;;;;6233427;22;19929;-87
2022/11/07 10:05:51;;;;;;;;;;;;;;;;;;6234901;22;20343;-86
2022/11/07 10:08:17;;;;;;;;;;;;;;;;;;6235249;22;19923;-86
2022/11/07 10:10:43;;;;;;;;;;;;;;;;;;6230024;22;19919;-86
2022/11/07 10:13:18;;;;;;;;;;;;;;;;;;6238387;22;19986;-94
2022/11/07 10:15:44;;;;;;;;;;;;;;;;;;6235314;22;20562;-87
2022/11/07 10:18:13;;;;;;;;;;;;;;;;;;6208878;22;19919;-93
2022/11/07 10:20:39;;;;;;;;;;;;;;;;;;6235779;22;20283;-87
2022/11/07 10:23:05;;;;;;;;;;;;;;;;;;6235179;22;19923;-87
2022/11/07 10:25:31;;;;;;;;;;;;;;;;;;6207974;22;20390;-86
2022/11/07 10:27:57;;;;;;;;;;;;;;;;;;6211983;22;20236;-86
2022/11/07 10:30:29;;;;;;;;;;;;;;;;;;6232983;22;19915;-87
2022/11/07 10:32:55;;;;;;;;;;;;;;;;;;6211613;22;19949;-87
2022/11/07 10:35:23;;;;;;;;;;;;;;;;;;6258390;22;19927;-87
2022/11/07 10:37:49;;;;;;;;;;;;;;;;;;6238951;22;19915;-87
2022/11/07 10:40:15;;;;;;;;;;;;;;;;;;6206810;22;20399;-87
2022/11/07 10:42:41;;;;;;;;;;;;;;;;;;6209734;22;19919;-87
2022/11/07 10:45:07;;;;;;;;;;;;;;;;;;6234453;22;19923;-89
2022/11/07 10:47:33;;;;;;;;;;;;;;;;;;6212306;22;20471;-88
2022/11/07 10:49:59;;;;;;;;;;;;;;;;;;6213629;22;19923;-88
2022/11/07 10:52:25;;;;;;;;;;;;;;;;;;6235086;22;19923;-88
2022/11/07 10:54:51;;;;;;;;;;;;;;;;;;6212065;22;20351;-88
2022/11/07 10:57:17;;;;;;;;;;;;;;;;;;6261466;22;19955;-87
2022/11/07 10:59:43;;;;;;;;;;;;;;;;;;6211587;22;19993;-87
2022/11/07 11:02:09;;;;;;;;;;;;;;;;;;6209003;22;20016;-87
2022/11/07 11:04:35;;;;;;;;;;;;;;;;;;6232582;22;19930;-87
2022/11/07 11:07:01;;;;;;;;;;;;;;;;;;6237845;22;19946;-87
2022/11/07 11:09:26;;;;;;;;;;;;;;;;;;6236531;22;20354;-87
2022/11/07 11:11:53;;;;;;;;;;;;;;;;;;6212874;22;19920;-87
2022/11/07 11:14:18;;;;;;;;;;;;;;;;;;6235146;22;19926;-87
2022/11/07 11:16:47;;;;;;;;;;;;;;;;;;6211627;22;20484;-87
2022/11/07 11:19:13;;;;;;;;;;;;;;;;;;6236625;22;20255;-88
2022/11/07 11:21:39;;;;;;;;;;;;;;;;;;6210606;22;19926;-87
2022/11/07 11:24:05;;;;;;;;;;;;;;;;;;6236494;22;19962;-88
2022/11/07 11:26:31;;;;;;;;;;;;;;;;;;6209806;22;20456;-88
2022/11/07 11:28:57;;;;;;;;;;;;;;;;;;6211828;22;19922;-87
2022/11/07 11:31:23;;;;;;;;;;;;;;;;;;6233135;22;19965;-87
2022/11/07 11:33:49;;;;;;;;;;;;;;;;;;6213011;22;19915;-87
2022/11/07 11:36:15;;;;;;;;;;;;;;;;;;6208498;22;19977;-88
2022/11/07 11:38:41;;;;;;;;;;;;;;;;;;6212739;22;19919;-87
2022/11/07 11:41:07;;;;;;;;;;;;;;;;;;6235052;22;19943;-88
2022/11/07 11:43:33;;;;;;;;;;;;;;;;;;6233570;22;19919;-88
2022/11/07 11:46:02;;;;;;;;;;;;;;;;;;6212595;22;19923;-88
2022/11/07 11:48:28;;;;;;;;;;;;;;;;;;6211979;22;19919;-88
2022/11/07 11:50:54;;;;;;;;;;;;;;;;;;6210518;22;19919;-88
2022/11/07 11:53:20;;;;;;;;;;;;;;;;;;6207923;22;19926;-88
2022/11/07 11:55:46;;;;;;;;;;;;;;;;;;6235695;22;20016;-88
2022/11/07 11:58:12;;;;;;;;;;;;;;;;;;6208236;22;19951;-88
2022/11/07 12:00:38;;;;;;;;;;;;;;;;;;6213093;22;20342;-88
2022/11/07 12:03:04;;;;;;;;;;;;;;;;;;6212885;22;19919;-88
2022/11/07 12:05:30;;;;;;;;;;;;;;;;;;6232411;22;20256;-88
2022/11/07 12:07:56;;;;;;;;;;;;;;;;;;6205257;23;19923;-88
2022/11/07 12:10:22;;;;;;;;;;;;;;;;;;6179724;23;20295;-88
2022/11/07 12:12:48;;;;;;;;;;;;;;;;;;6180456;23;19982;-88
2022/11/07 12:15:13;;;;;;;;;;;;;;;;;;6179827;23;19923;-88
2022/11/07 12:17:39;;;;;;;;;;;;;;;;;;6205823;23;19919;-88
2022/11/07 12:20:05;;;;;;;;;;;;;;;;;;6207335;23;20234;-88
2022/11/07 12:22:31;;;;;;;;;;;;;;;;;;6204142;23;19946;-88
2022/11/07 12:24:57;;;;;;;;;;;;;;;;;;6184923;23;19920;-88
2022/11/07 12:27:23;;;;;;;;;;;;;;;;;;6181164;23;20333;-88
2022/11/07 12:29:49;;;;;;;;;;;;;;;;;;6183398;23;19920;-88
2022/11/07 12:32:15;;;;;;;;;;;;;;;;;;6177229;23;19920;-88
2022/11/07 12:34:41;;;;;;;;;;;;;;;;;;6179490;23;20264;-88
2022/11/07 12:37:07;;;;;;;;;;;;;;;;;;6181002;23;19931;-88
2022/11/07 12:39:33;;;;;;;;;;;;;;;;;;6178291;23;19915;-88
2022/11/07 12:41:59;;;;;;;;;;;;;;;;;;6180686;23;20291;-89
2022/11/07 12:44:25;;;;;;;;;;;;;;;;;;6201029;23;20268;-88
2022/11/07 12:46:51;;;;;;;;;;;;;;;;;;6180905;23;19915;-89
2022/11/07 12:49:17;;;;;;;;;;;;;;;;;;6179423;23;19919;-88
2022/11/07 12:51:43;;;;;;;;;;;;;;;;;;6206557;23;19927;-88
2022/11/07 12:54:09;;;;;;;;;;;;;;;;;;6205891;23;20324;-88
2022/11/07 12:56:36;;;;;;;;;;;;;;;;;;6179578;23;19935;-88
2022/11/07 12:59:02;;;;;;;;;;;;;;;;;;6203660;23;19919;-88
2022/11/07 13:01:27;;;;;;;;;;;;;;;;;;6178512;23;19916;-88
2022/11/07 13:03:53;;;;;;;;;;;;;;;;;;6207073;23;19958;-88
2022/11/07 13:06:20;;;;;;;;;;;;;;;;;;6175909;23;19926;-88
2022/11/07 13:08:46;;;;;;;;;;;;;;;;;;6205249;23;19995;-88
2022/11/07 13:11:12;;;;;;;;;;;;;;;;;;6204582;23;20356;-88
2022/11/07 13:13:38;;;;;;;;;;;;;;;;;;6178167;23;19954;-88
2022/11/07 13:16:04;;;;;;;;;;;;;;;;;;6182274;23;20136;-89
2022/11/07 13:18:30;;;;;;;;;;;;;;;;;;6175666;23;20248;-88
2022/11/07 13:20:59;;;;;;;;;;;;;;;;;;6205285;23;19919;-89
2022/11/07 13:23:27;;;;;;;;;;;;;;;;;;6176395;23;20014;-88
2022/11/07 13:25:53;;;;;;;;;;;;;;;;;;6209270;23;19967;-88
2022/11/07 13:28:19;;;;;;;;;;;;;;;;;;6179841;23;20033;-88
2022/11/07 13:30:45;;;;;;;;;;;;;;;;;;6183808;23;20030;-89
2022/11/07 13:33:11;;;;;;;;;;;;;;;;;;6205138;23;20321;-88
2022/11/07 13:35:37;;;;;;;;;;;;;;;;;;6181350;23;19923;-93
2022/11/07 13:38:03;;;;;;;;;;;;;;;;;;6207900;23;20356;-88
2022/11/07 13:40:29;;;;;;;;;;;;;;;;;;6206457;23;19923;-88
2022/11/07 13:42:55;;;;;;;;;;;;;;;;;;6183266;23;19924;-89
2022/11/07 13:45:21;;;;;;;;;;;;;;;;;;6204089;23;20386;-89
2022/11/07 13:47:47;;;;;;;;;;;;;;;;;;6182093;23;19920;-88
2022/11/07 13:50:13;;;;;;;;;;;;;;;;;;6178371;23;19920;-88
2022/11/07 13:52:39;;;;;;;;;;;;;;;;;;6207044;23;19926;-89
2022/11/07 13:55:05;;;;;;;;;;;;;;;;;;6181151;23;20349;-88
2022/11/07 13:57:31;;;;;;;;;;;;;;;;;;6177512;23;19972;-88
2022/11/07 13:59:57;;;;;;;;;;;;;;;;;;6181589;23;19927;-92
2022/11/07 14:02:26;;;;;;;;;;;;;;;;;;6177822;23;19939;-91
2022/11/07 14:05:00;;;;;;;;;;;;;;;;;;6206401;23;20400;-92
2022/11/07 14:07:26;;;;;;;;;;;;;;;;;;6185519;23;19927;-90
2022/11/07 14:09:57;;;;;;;;;;;;;;;;;;6177200;23;19923;-92
2022/11/07 14:12:26;;;;;;;;;;;;;;;;;;6178386;23;20368;-90
2022/11/07 14:14:54;;;;;;;;;;;;;;;;;;6180509;23;20334;-90
2022/11/07 14:17:26;;;;;;;;;;;;;;;;;;6180247;23;20301;-90
2022/11/07 14:19:52;;;;;;;;;;;;;;;;;;6179307;23;20046;-90
2022/11/07 14:22:18;;;;;;;;;;;;;;;;;;6177100;23;19919;-89
2022/11/07 14:27:30;;;;;;;;;;;;;;;;;;6192000;23;19919;-91
2022/11/07 14:29:56;;;;;;;;;;;;;;;;;;6181054;23;20009;-92
2022/11/07 14:32:40;;;;;;;;;;;;;;;;;;6206114;23;19967;-92
2022/11/07 14:35:09;;;;;;;;;;;;;;;;;;6180788;23;19924;-90
2022/11/07 14:37:41;;;;;;;;;;;;;;;;;;6202098;23;20060;-90
2022/11/07 14:40:13;;;;;;;;;;;;;;;;;;6201898;23;19995;-89
2022/11/07 14:42:39;;;;;;;;;;;;;;;;;;6181262;23;19920;-88
2022/11/07 14:45:05;;;;;;;;;;;;;;;;;;6205028;23;20297;-88
2022/11/07 14:47:31;;;;;;;;;;;;;;;;;;6177304;23;19959;-87
2022/11/07 14:50:06;;;;;;;;;;;;;;;;;;6182137;23;19919;-89
2022/11/07 14:52:43;;;;;;;;;;;;;;;;;;6204744;23;19920;-87
2022/11/07 14:55:20;;;;;;;;;;;;;;;;;;6178941;23;19931;-94
2022/11/07 14:58:04;;;;;;;;;;;;;;;;;;6200945;23;19966;-94
2022/11/07 15:06:34;;;;;;;;;;;;;;;;;;6219797;23;20259;-94
2022/11/07 15:09:27;;;;;;;;;;;;;;;;;;6194574;23;20407;-96
2022/11/07 15:11:53;;;;;;;;;;;;;;;;;;6180587;23;19923;-93
2022/11/07 15:14:28;;;;;;;;;;;;;;;;;;6199223;23;19920;-95
2022/11/07 15:23:56;;;;;;;;;;;;;;;;;;;;;
2022/11/07 15:29:52;;;;;;;;;;;;;;;;;;6101573;23;19995;-93
2022/11/07 15:32:18;;;;;;;;;;;;;;;;;;6084598;23;19917;-93
2022/11/07 15:34:44;;;;;;;;;;;;;;;;;;6128040;23;19919;-93
2022/11/07 15:37:13;;;;;;;;;;;;;;;;;;6202427;23;19926;-94
2022/11/07 15:39:39;;;;;;;;;;;;;;;;;;6180186;23;19969;-93
2022/11/07 15:42:05;;;;;;;;;;;;;;;;;;6179532;23;19923;-92
2022/11/07 15:44:31;;;;;;;;;;;;;;;;;;6202148;23;19930;-93
2022/11/07 15:46:57;;;;;;;;;;;;;;;;;;6203491;23;19919;-92
2022/11/07 15:49:23;;;;;;;;;;;;;;;;;;6175898;23;19952;-93
2022/11/07 15:51:49;;;;;;;;;;;;;;;;;;6178496;23;19916;-93
2022/11/07 15:54:17;;;;;;;;;;;;;;;;;;6177444;23;20049;-93
2022/11/07 15:56:43;;;;;;;;;;;;;;;;;;6203065;23;19923;-92
2022/11/07 15:59:09;;;;;;;;;;;;;;;;;;6177159;23;19915;-93
2022/11/07 16:01:35;;;;;;;;;;;;;;;;;;6177161;23;19994;-92
2022/11/07 16:07:20;;;;;;;;;;;;;;;;;;6115828;23;20521;-91
2022/11/07 16:09:58;;;;;;;;;;;;;;;;;;6154877;23;20002;-93
2022/11/07 16:12:25;;;;;;;;;;;;;;;;;;6177451;23;19923;-92
2022/11/07 16:14:58;;;;;;;;;;;;;;;;;;6178264;23;19927;-93
2022/11/07 16:17:24;;;;;;;;;;;;;;;;;;6177556;23;19955;-91
2022/11/07 16:19:53;;;;;;;;;;;;;;;;;;6199074;23;19915;-94
2022/11/07 16:22:22;;;;;;;;;;;;;;;;;;6169189;23;19931;-92
2022/11/07 16:24:55;;;;;;;;;;;;;;;;;;6176469;23;19926;-92
2022/11/07 16:27:24;;;;;;;;;;;;;;;;;;6197480;23;20095;-91
2022/11/07 16:29:53;;;;;;;;;;;;;;;;;;6198639;23;19955;-92
2022/11/07 16:32:19;;;;;;;;;;;;;;;;;;6173268;23;19994;-92
2022/11/07 16:34:45;;;;;;;;;;;;;;;;;;6174858;23;19958;-91
2022/11/07 16:37:11;;;;;;;;;;;;;;;;;;6198815;23;20403;-92
2022/11/07 16:39:37;;;;;;;;;;;;;;;;;;6176162;23;19919;-92
2022/11/07 16:42:06;;;;;;;;;;;;;;;;;;6175329;23;19966;-92
2022/11/07 16:44:35;;;;;;;;;;;;;;;;;;6172142;23;19923;-93
2022/11/07 16:47:01;;;;;;;;;;;;;;;;;;6199622;23;20670;-92
2022/11/07 16:49:30;;;;;;;;;;;;;;;;;;6176361;23;19923;-94
2022/11/07 16:51:56;;;;;;;;;;;;;;;;;;6201533;23;19915;-92
2022/11/07 16:54:22;;;;;;;;;;;;;;;;;;6176124;23;20348;-91
2022/11/07 16:56:52;;;;;;;;;;;;;;;;;;6175522;23;20337;-91
2022/11/07 16:59:21;;;;;;;;;;;;;;;;;;6177843;23;19951;-91
2022/11/07 17:01:47;;;;;;;;;;;;;;;;;;6178529;23;20316;-91
2022/11/07 17:04:13;;;;;;;;;;;;;;;;;;6200541;23;19926;-91
2022/11/07 17:06:45;;;;;;;;;;;;;;;;;;6176754;23;20293;-91
2022/11/07 17:12:11;;;;;;;;;;;;;;;;;;6233710;22;20258;-93
2022/11/07 17:14:40;;;;;;;;;;;;;;;;;;6238830;22;19961;-91
2022/11/07 17:17:06;;;;;;;;;;;;;;;;;;6240767;22;19970;-92
2022/11/07 17:19:32;;;;;;;;;;;;;;;;;;6237993;22;19919;-91
2022/11/07 17:22:00;;;;;;;;;;;;;;;;;;6240662;22;20416;-91